sensor_id;sensor_type;location;lat;lon;timestamp;P1;durP1;ratioP1;P2;durP2;ratioP2
14030;SDS011;7090;49.436;8.490;2022-12-18T00:00:55;8.43;;;7.87;;
14030;SDS011;7090;49.436;8.490;2022-12-18T00:03:20;10.43;;;9.80;;
14030;SDS011;7090;49.436;8.490;2022-12-18T00:05:49;9.43;;;8.57;;
14030;SDS011;7090;49.436;8.490;2022-12-18T00:08:16;6.03;;;5.83;;
14030;SDS011;7090;49.436;8.490;2022-12-18T00:10:42;8.57;;;7.90;;
14030;SDS011;7090;49.436;8.490;2022-12-18T00:13:08;10.00;;;9.20;;
14030;SDS011;7090;49.436;8.490;2022-12-18T00:15:34;9.77;;;8.87;;
14030;SDS011;7090;49.436;8.490;2022-12-18T00:18:00;7.80;;;7.30;;
14030;SDS011;7090;49.436;8.490;2022-12-18T00:20:26;6.03;;;5.80;;
14030;SDS011;7090;49.436;8.490;2022-12-18T00:22:52;12.47;;;11.33;;
14030;SDS011;7090;49.436;8.490;2022-12-18T00:25:18;8.27;;;7.77;;
14030;SDS011;7090;49.436;8.490;2022-12-18T00:27:43;10.65;;;9.77;;
14030;SDS011;7090;49.436;8.490;2022-12-18T00:30:09;11.50;;;10.83;;
14030;SDS011;7090;49.436;8.490;2022-12-18T00:32:35;11.20;;;9.93;;
14030;SDS011;7090;49.436;8.490;2022-12-18T00:35:01;9.13;;;8.53;;
14030;SDS011;7090;49.436;8.490;2022-12-18T00:37:27;8.90;;;8.40;;
14030;SDS011;7090;49.436;8.490;2022-12-18T00:39:52;11.13;;;10.40;;
14030;SDS011;7090;49.436;8.490;2022-12-18T00:42:18;5.80;;;5.60;;
14030;SDS011;7090;49.436;8.490;2022-12-18T00:45:02;14.30;;;11.57;;
14030;SDS011;7090;49.436;8.490;2022-12-18T00:47:28;10.43;;;9.67;;
14030;SDS011;7090;49.436;8.490;2022-12-18T00:49:53;18.33;;;13.60;;
14030;SDS011;7090;49.436;8.490;2022-12-18T00:52:19;11.50;;;10.53;;
14030;SDS011;7090;49.436;8.490;2022-12-18T00:54:44;11.50;;;10.40;;
14030;SDS011;7090;49.436;8.490;2022-12-18T00:57:13;11.53;;;10.63;;
14030;SDS011;7090;49.436;8.490;2022-12-18T00:59:39;11.40;;;10.43;;
14030;SDS011;7090;49.436;8.490;2022-12-18T01:02:04;10.53;;;9.63;;
14030;SDS011;7090;49.436;8.490;2022-12-18T01:04:33;18.17;;;13.27;;
14030;SDS011;7090;49.436;8.490;2022-12-18T01:06:59;15.77;;;12.77;;
14030;SDS011;7090;49.436;8.490;2022-12-18T01:09:24;12.17;;;11.13;;
14030;SDS011;7090;49.436;8.490;2022-12-18T01:11:50;7.47;;;7.13;;
14030;SDS011;7090;49.436;8.490;2022-12-18T01:14:16;17.03;;;12.50;;
14030;SDS011;7090;49.436;8.490;2022-12-18T01:16:41;9.47;;;8.90;;
14030;SDS011;7090;49.436;8.490;2022-12-18T01:19:07;9.10;;;8.70;;
14030;SDS011;7090;49.436;8.490;2022-12-18T01:21:32;7.53;;;7.27;;
14030;SDS011;7090;49.436;8.490;2022-12-18T01:23:58;8.73;;;8.00;;
14030;SDS011;7090;49.436;8.490;2022-12-18T01:26:24;6.27;;;6.07;;
14030;SDS011;7090;49.436;8.490;2022-12-18T01:28:50;17.20;;;15.57;;
14030;SDS011;7090;49.436;8.490;2022-12-18T01:31:26;7.13;;;6.90;;
14030;SDS011;7090;49.436;8.490;2022-12-18T01:33:53;7.10;;;6.80;;
14030;SDS011;7090;49.436;8.490;2022-12-18T01:36:25;7.03;;;6.73;;
14030;SDS011;7090;49.436;8.490;2022-12-18T01:38:52;6.37;;;5.97;;
14030;SDS011;7090;49.436;8.490;2022-12-18T01:41:20;9.50;;;8.57;;
14030;SDS011;7090;49.436;8.490;2022-12-18T01:43:56;13.00;;;11.77;;
14030;SDS011;7090;49.436;8.490;2022-12-18T01:46:26;9.33;;;8.83;;
14030;SDS011;7090;49.436;8.490;2022-12-18T01:48:53;7.90;;;7.60;;
14030;SDS011;7090;49.436;8.490;2022-12-18T01:51:22;10.67;;;9.87;;
14030;SDS011;7090;49.436;8.490;2022-12-18T01:53:48;16.43;;;14.77;;
14030;SDS011;7090;49.436;8.490;2022-12-18T01:56:15;22.03;;;14.43;;
14030;SDS011;7090;49.436;8.490;2022-12-18T01:58:54;15.73;;;14.53;;
14030;SDS011;7090;49.436;8.490;2022-12-18T02:01:23;15.87;;;14.40;;
14030;SDS011;7090;49.436;8.490;2022-12-18T02:03:49;9.87;;;9.40;;
14030;SDS011;7090;49.436;8.490;2022-12-18T02:06:19;8.40;;;8.00;;
14030;SDS011;7090;49.436;8.490;2022-12-18T02:08:48;12.40;;;8.80;;
14030;SDS011;7090;49.436;8.490;2022-12-18T02:11:53;11.90;;;11.33;;
14030;SDS011;7090;49.436;8.490;2022-12-18T02:14:44;11.30;;;10.37;;
14030;SDS011;7090;49.436;8.490;2022-12-18T02:17:29;14.67;;;13.13;;
14030;SDS011;7090;49.436;8.490;2022-12-18T02:20:18;12.27;;;11.40;;
14030;SDS011;7090;49.436;8.490;2022-12-18T02:22:51;9.67;;;9.27;;
14030;SDS011;7090;49.436;8.490;2022-12-18T02:28:38;11.67;;;10.97;;
14030;SDS011;7090;49.436;8.490;2022-12-18T02:31:11;14.63;;;13.17;;
14030;SDS011;7090;49.436;8.490;2022-12-18T02:33:42;9.80;;;9.33;;
14030;SDS011;7090;49.436;8.490;2022-12-18T02:36:09;11.18;;;9.18;;
14030;SDS011;7090;49.436;8.490;2022-12-18T02:38:37;9.90;;;9.40;;
14030;SDS011;7090;49.436;8.490;2022-12-18T02:41:04;18.87;;;17.83;;
14030;SDS011;7090;49.436;8.490;2022-12-18T02:43:31;8.80;;;8.00;;
14030;SDS011;7090;49.436;8.490;2022-12-18T02:45:57;21.07;;;18.97;;
14030;SDS011;7090;49.436;8.490;2022-12-18T02:48:26;7.30;;;6.97;;
14030;SDS011;7090;49.436;8.490;2022-12-18T02:50:59;8.30;;;7.60;;
14030;SDS011;7090;49.436;8.490;2022-12-18T02:53:33;8.83;;;8.43;;
14030;SDS011;7090;49.436;8.490;2022-12-18T02:56:10;6.40;;;6.20;;
14030;SDS011;7090;49.436;8.490;2022-12-18T03:07:28;7.30;;;6.90;;
14030;SDS011;7090;49.436;8.490;2022-12-18T03:10:11;16.03;;;14.77;;
14030;SDS011;7090;49.436;8.490;2022-12-18T03:12:43;6.53;;;6.33;;
14030;SDS011;7090;49.436;8.490;2022-12-18T03:15:18;8.10;;;7.70;;
14030;SDS011;7090;49.436;8.490;2022-12-18T03:17:50;11.70;;;10.70;;
14030;SDS011;7090;49.436;8.490;2022-12-18T03:20:21;10.60;;;9.67;;
14030;SDS011;7090;49.436;8.490;2022-12-18T03:22:51;7.77;;;7.47;;
14030;SDS011;7090;49.436;8.490;2022-12-18T03:25:22;9.70;;;9.10;;
14030;SDS011;7090;49.436;8.490;2022-12-18T03:27:51;12.67;;;11.70;;
14030;SDS011;7090;49.436;8.490;2022-12-18T03:30:22;9.60;;;9.07;;
14030;SDS011;7090;49.436;8.490;2022-12-18T03:32:58;15.95;;;14.60;;
14030;SDS011;7090;49.436;8.490;2022-12-18T03:35:45;11.57;;;10.90;;
14030;SDS011;7090;49.436;8.490;2022-12-18T03:38:12;7.77;;;7.47;;
14030;SDS011;7090;49.436;8.490;2022-12-18T03:43:42;16.10;;;11.33;;
14030;SDS011;7090;49.436;8.490;2022-12-18T03:46:28;14.50;;;12.90;;
14030;SDS011;7090;49.436;8.490;2022-12-18T03:49:03;8.03;;;7.73;;
14030;SDS011;7090;49.436;8.490;2022-12-18T03:51:40;7.87;;;7.57;;
14030;SDS011;7090;49.436;8.490;2022-12-18T03:54:15;14.60;;;11.70;;
14030;SDS011;7090;49.436;8.490;2022-12-18T03:56:44;9.70;;;9.23;;
14030;SDS011;7090;49.436;8.490;2022-12-18T03:59:13;7.93;;;7.53;;
14030;SDS011;7090;49.436;8.490;2022-12-18T04:01:42;8.63;;;8.23;;
14030;SDS011;7090;49.436;8.490;2022-12-18T04:04:12;8.20;;;7.87;;
14030;SDS011;7090;49.436;8.490;2022-12-18T04:06:39;7.53;;;7.20;;
14030;SDS011;7090;49.436;8.490;2022-12-18T04:09:06;6.97;;;6.77;;
14030;SDS011;7090;49.436;8.490;2022-12-18T04:11:32;8.50;;;8.20;;
14030;SDS011;7090;49.436;8.490;2022-12-18T04:13:58;11.85;;;11.07;;
14030;SDS011;7090;49.436;8.490;2022-12-18T04:16:25;7.63;;;7.33;;
14030;SDS011;7090;49.436;8.490;2022-12-18T04:18:51;11.13;;;10.50;;
14030;SDS011;7090;49.436;8.490;2022-12-18T04:21:17;13.00;;;10.23;;
14030;SDS011;7090;49.436;8.490;2022-12-18T04:23:42;11.17;;;10.37;;
14030;SDS011;7090;49.436;8.490;2022-12-18T04:26:08;9.03;;;8.63;;
14030;SDS011;7090;49.436;8.490;2022-12-18T04:28:33;8.63;;;8.33;;
14030;SDS011;7090;49.436;8.490;2022-12-18T04:30:59;8.30;;;7.90;;
14030;SDS011;7090;49.436;8.490;2022-12-18T04:33:24;7.30;;;7.07;;
14030;SDS011;7090;49.436;8.490;2022-12-18T04:35:50;9.17;;;8.77;;
14030;SDS011;7090;49.436;8.490;2022-12-18T04:38:15;7.80;;;7.50;;
14030;SDS011;7090;49.436;8.490;2022-12-18T04:40:41;9.98;;;9.48;;
14030;SDS011;7090;49.436;8.490;2022-12-18T04:43:07;7.60;;;7.30;;
14030;SDS011;7090;49.436;8.490;2022-12-18T04:45:32;9.10;;;8.67;;
14030;SDS011;7090;49.436;8.490;2022-12-18T04:47:58;9.57;;;8.97;;
14030;SDS011;7090;49.436;8.490;2022-12-18T04:50:25;9.70;;;9.30;;
14030;SDS011;7090;49.436;8.490;2022-12-18T04:52:51;8.37;;;8.07;;
14030;SDS011;7090;49.436;8.490;2022-12-18T04:55:17;7.97;;;7.57;;
14030;SDS011;7090;49.436;8.490;2022-12-18T04:57:42;8.00;;;7.70;;
14030;SDS011;7090;49.436;8.490;2022-12-18T05:00:08;7.93;;;7.53;;
14030;SDS011;7090;49.436;8.490;2022-12-18T05:02:34;7.33;;;7.00;;
14030;SDS011;7090;49.436;8.490;2022-12-18T05:05:00;6.97;;;6.67;;
14030;SDS011;7090;49.436;8.490;2022-12-18T05:07:25;7.23;;;7.00;;
14030;SDS011;7090;49.436;8.490;2022-12-18T05:09:51;6.93;;;6.73;;
14030;SDS011;7090;49.436;8.490;2022-12-18T05:12:16;8.20;;;7.80;;
14030;SDS011;7090;49.436;8.490;2022-12-18T05:14:42;6.77;;;6.57;;
14030;SDS011;7090;49.436;8.490;2022-12-18T05:17:08;9.73;;;9.27;;
14030;SDS011;7090;49.436;8.490;2022-12-18T05:19:33;10.37;;;9.87;;
14030;SDS011;7090;49.436;8.490;2022-12-18T05:22:09;15.30;;;10.00;;
14030;SDS011;7090;49.436;8.490;2022-12-18T05:24:34;7.47;;;7.10;;
14030;SDS011;7090;49.436;8.490;2022-12-18T05:27:00;7.73;;;7.43;;
14030;SDS011;7090;49.436;8.490;2022-12-18T05:29:26;8.47;;;8.17;;
14030;SDS011;7090;49.436;8.490;2022-12-18T05:31:51;7.40;;;7.20;;
14030;SDS011;7090;49.436;8.490;2022-12-18T05:34:17;8.37;;;8.07;;
14030;SDS011;7090;49.436;8.490;2022-12-18T05:36:42;9.60;;;8.73;;
14030;SDS011;7090;49.436;8.490;2022-12-18T05:39:08;7.60;;;7.30;;
14030;SDS011;7090;49.436;8.490;2022-12-18T05:41:34;8.13;;;7.83;;
14030;SDS011;7090;49.436;8.490;2022-12-18T05:43:59;8.17;;;7.87;;
14030;SDS011;7090;49.436;8.490;2022-12-18T05:46:25;9.07;;;8.73;;
14030;SDS011;7090;49.436;8.490;2022-12-18T05:48:51;12.37;;;11.33;;
14030;SDS011;7090;49.436;8.490;2022-12-18T05:51:18;11.53;;;9.47;;
14030;SDS011;7090;49.436;8.490;2022-12-18T05:53:45;7.37;;;7.07;;
14030;SDS011;7090;49.436;8.490;2022-12-18T05:56:15;9.20;;;8.77;;
14030;SDS011;7090;49.436;8.490;2022-12-18T05:58:44;8.23;;;7.80;;
14030;SDS011;7090;49.436;8.490;2022-12-18T06:01:14;10.57;;;10.17;;
14030;SDS011;7090;49.436;8.490;2022-12-18T06:03:42;10.27;;;9.50;;
14030;SDS011;7090;49.436;8.490;2022-12-18T06:08:43;12.53;;;11.80;;
14030;SDS011;7090;49.436;8.490;2022-12-18T06:11:09;9.07;;;8.43;;
14030;SDS011;7090;49.436;8.490;2022-12-18T06:13:34;8.77;;;8.30;;
14030;SDS011;7090;49.436;8.490;2022-12-18T06:16:04;7.70;;;7.40;;
14030;SDS011;7090;49.436;8.490;2022-12-18T06:18:30;9.63;;;9.13;;
14030;SDS011;7090;49.436;8.490;2022-12-18T06:20:57;8.87;;;8.20;;
14030;SDS011;7090;49.436;8.490;2022-12-18T06:23:23;8.03;;;7.73;;
14030;SDS011;7090;49.436;8.490;2022-12-18T06:25:49;10.95;;;10.45;;
14030;SDS011;7090;49.436;8.490;2022-12-18T06:28:15;7.70;;;7.40;;
14030;SDS011;7090;49.436;8.490;2022-12-18T06:30:43;7.30;;;7.10;;
14030;SDS011;7090;49.436;8.490;2022-12-18T06:33:09;9.03;;;8.63;;
14030;SDS011;7090;49.436;8.490;2022-12-18T06:35:34;8.00;;;7.70;;
14030;SDS011;7090;49.436;8.490;2022-12-18T06:38:00;14.00;;;13.10;;
14030;SDS011;7090;49.436;8.490;2022-12-18T06:40:26;82.30;;;35.73;;
14030;SDS011;7090;49.436;8.490;2022-12-18T06:42:52;6.83;;;6.53;;
14030;SDS011;7090;49.436;8.490;2022-12-18T06:45:18;7.43;;;7.13;;
14030;SDS011;7090;49.436;8.490;2022-12-18T06:47:43;8.25;;;7.95;;
14030;SDS011;7090;49.436;8.490;2022-12-18T06:53:18;10.10;;;9.43;;
14030;SDS011;7090;49.436;8.490;2022-12-18T06:55:44;7.97;;;7.67;;
14030;SDS011;7090;49.436;8.490;2022-12-18T06:58:09;15.87;;;14.87;;
14030;SDS011;7090;49.436;8.490;2022-12-18T07:00:35;12.13;;;10.97;;
14030;SDS011;7090;49.436;8.490;2022-12-18T07:06:13;9.10;;;8.67;;
14030;SDS011;7090;49.436;8.490;2022-12-18T07:08:44;11.83;;;11.03;;
14030;SDS011;7090;49.436;8.490;2022-12-18T07:11:10;11.00;;;10.23;;
14030;SDS011;7090;49.436;8.490;2022-12-18T07:13:37;11.43;;;10.57;;
14030;SDS011;7090;49.436;8.490;2022-12-18T07:16:03;9.17;;;8.77;;
14030;SDS011;7090;49.436;8.490;2022-12-18T07:18:55;48.40;;;24.13;;
14030;SDS011;7090;49.436;8.490;2022-12-18T07:21:21;7.93;;;7.63;;
14030;SDS011;7090;49.436;8.490;2022-12-18T07:23:48;15.63;;;13.83;;
14030;SDS011;7090;49.436;8.490;2022-12-18T07:26:15;11.30;;;10.70;;
14030;SDS011;7090;49.436;8.490;2022-12-18T07:32:04;16.27;;;11.93;;
14030;SDS011;7090;49.436;8.490;2022-12-18T07:34:30;35.23;;;19.73;;
14030;SDS011;7090;49.436;8.490;2022-12-18T07:36:55;16.57;;;9.90;;
14030;SDS011;7090;49.436;8.490;2022-12-18T07:39:21;7.00;;;6.80;;
14030;SDS011;7090;49.436;8.490;2022-12-18T07:41:46;25.40;;;17.33;;
14030;SDS011;7090;49.436;8.490;2022-12-18T07:44:32;9.43;;;8.87;;
14030;SDS011;7090;49.436;8.490;2022-12-18T07:50:01;6.90;;;6.70;;
14030;SDS011;7090;49.436;8.490;2022-12-18T07:52:28;54.33;;;23.67;;
14030;SDS011;7090;49.436;8.490;2022-12-18T07:54:53;15.50;;;14.03;;
14030;SDS011;7090;49.436;8.490;2022-12-18T07:57:19;7.43;;;7.20;;
14030;SDS011;7090;49.436;8.490;2022-12-18T07:59:44;10.33;;;9.73;;
14030;SDS011;7090;49.436;8.490;2022-12-18T08:02:13;7.20;;;7.00;;
14030;SDS011;7090;49.436;8.490;2022-12-18T08:04:38;12.47;;;10.83;;
14030;SDS011;7090;49.436;8.490;2022-12-18T08:07:04;7.53;;;7.23;;
14030;SDS011;7090;49.436;8.490;2022-12-18T08:09:29;8.50;;;8.10;;
14030;SDS011;7090;49.436;8.490;2022-12-18T08:11:55;11.13;;;10.23;;
14030;SDS011;7090;49.436;8.490;2022-12-18T08:14:20;12.87;;;12.30;;
14030;SDS011;7090;49.436;8.490;2022-12-18T08:16:46;8.30;;;7.90;;
14030;SDS011;7090;49.436;8.490;2022-12-18T08:19:12;7.07;;;6.87;;
14030;SDS011;7090;49.436;8.490;2022-12-18T08:21:40;9.33;;;8.93;;
14030;SDS011;7090;49.436;8.490;2022-12-18T08:24:06;10.83;;;10.23;;
14030;SDS011;7090;49.436;8.490;2022-12-18T08:26:32;11.43;;;10.53;;
14030;SDS011;7090;49.436;8.490;2022-12-18T08:28:58;8.70;;;8.30;;
14030;SDS011;7090;49.436;8.490;2022-12-18T08:31:25;8.17;;;7.87;;
14030;SDS011;7090;49.436;8.490;2022-12-18T08:33:52;9.83;;;9.03;;
14030;SDS011;7090;49.436;8.490;2022-12-18T08:36:18;10.37;;;9.60;;
14030;SDS011;7090;49.436;8.490;2022-12-18T08:38:44;9.53;;;9.03;;
14030;SDS011;7090;49.436;8.490;2022-12-18T08:41:11;8.70;;;8.30;;
14030;SDS011;7090;49.436;8.490;2022-12-18T08:43:38;12.30;;;11.70;;
14030;SDS011;7090;49.436;8.490;2022-12-18T08:46:23;14.87;;;12.00;;
14030;SDS011;7090;49.436;8.490;2022-12-18T08:48:50;9.73;;;9.33;;
14030;SDS011;7090;49.436;8.490;2022-12-18T08:51:17;10.03;;;9.63;;
14030;SDS011;7090;49.436;8.490;2022-12-18T08:53:43;10.37;;;9.67;;
14030;SDS011;7090;49.436;8.490;2022-12-18T08:56:09;9.13;;;8.70;;
14030;SDS011;7090;49.436;8.490;2022-12-18T08:58:35;9.03;;;8.53;;
14030;SDS011;7090;49.436;8.490;2022-12-18T09:01:01;11.53;;;10.83;;
14030;SDS011;7090;49.436;8.490;2022-12-18T09:03:28;16.83;;;15.23;;
14030;SDS011;7090;49.436;8.490;2022-12-18T09:05:54;8.87;;;8.40;;
14030;SDS011;7090;49.436;8.490;2022-12-18T09:08:19;9.77;;;9.17;;
14030;SDS011;7090;49.436;8.490;2022-12-18T09:10:46;13.47;;;12.50;;
14030;SDS011;7090;49.436;8.490;2022-12-18T09:13:14;9.33;;;8.93;;
14030;SDS011;7090;49.436;8.490;2022-12-18T09:15:44;8.80;;;8.50;;
14030;SDS011;7090;49.436;8.490;2022-12-18T09:18:12;15.10;;;14.00;;
14030;SDS011;7090;49.436;8.490;2022-12-18T09:20:38;14.83;;;13.63;;
14030;SDS011;7090;49.436;8.490;2022-12-18T09:23:04;14.70;;;13.80;;
14030;SDS011;7090;49.436;8.490;2022-12-18T09:25:30;23.23;;;19.77;;
14030;SDS011;7090;49.436;8.490;2022-12-18T09:31:22;17.47;;;16.23;;
14030;SDS011;7090;49.436;8.490;2022-12-18T09:33:48;16.87;;;15.57;;
14030;SDS011;7090;49.436;8.490;2022-12-18T09:36:15;20.33;;;16.10;;
14030;SDS011;7090;49.436;8.490;2022-12-18T09:38:57;17.10;;;15.57;;
14030;SDS011;7090;49.436;8.490;2022-12-18T09:49:40;18.00;;;12.60;;
14030;SDS011;7090;49.436;8.490;2022-12-18T09:52:23;15.27;;;14.27;;
14030;SDS011;7090;49.436;8.490;2022-12-18T09:55:00;18.87;;;17.17;;
14030;SDS011;7090;49.436;8.490;2022-12-18T09:57:40;12.97;;;12.27;;
14030;SDS011;7090;49.436;8.490;2022-12-18T10:00:16;18.60;;;16.37;;
14030;SDS011;7090;49.436;8.490;2022-12-18T10:02:43;17.53;;;15.63;;
14030;SDS011;7090;49.436;8.490;2022-12-18T10:05:57;18.92;;;17.60;;
14030;SDS011;7090;49.436;8.490;2022-12-18T10:08:04;15.57;;;14.47;;
14030;SDS011;7090;49.436;8.490;2022-12-18T10:10:42;13.30;;;12.50;;
14030;SDS011;7090;49.436;8.490;2022-12-18T10:16:03;13.40;;;12.57;;
14030;SDS011;7090;49.436;8.490;2022-12-18T10:21:15;15.00;;;14.30;;
14030;SDS011;7090;49.436;8.490;2022-12-18T10:26:17;15.93;;;14.33;;
14030;SDS011;7090;49.436;8.490;2022-12-18T10:28:43;16.00;;;13.63;;
14030;SDS011;7090;49.436;8.490;2022-12-18T10:31:20;13.80;;;12.50;;
14030;SDS011;7090;49.436;8.490;2022-12-18T10:33:48;15.33;;;14.37;;
14030;SDS011;7090;49.436;8.490;2022-12-18T10:36:13;15.43;;;11.53;;
14030;SDS011;7090;49.436;8.490;2022-12-18T10:38:39;12.80;;;12.00;;
14030;SDS011;7090;49.436;8.490;2022-12-18T10:41:06;14.03;;;12.70;;
14030;SDS011;7090;49.436;8.490;2022-12-18T10:44:10;13.43;;;12.30;;
14030;SDS011;7090;49.436;8.490;2022-12-18T10:46:42;26.70;;;21.07;;
14030;SDS011;7090;49.436;8.490;2022-12-18T10:49:23;13.97;;;12.63;;
14030;SDS011;7090;49.436;8.490;2022-12-18T10:54:51;19.77;;;14.60;;
14030;SDS011;7090;49.436;8.490;2022-12-18T11:02:52;42.83;;;25.40;;
14030;SDS011;7090;49.436;8.490;2022-12-18T11:05:26;45.30;;;25.27;;
14030;SDS011;7090;49.436;8.490;2022-12-18T11:07:52;17.20;;;15.53;;
14030;SDS011;7090;49.436;8.490;2022-12-18T11:10:22;54.30;;;29.47;;
14030;SDS011;7090;49.436;8.490;2022-12-18T11:12:53;25.90;;;20.77;;
14030;SDS011;7090;49.436;8.490;2022-12-18T11:15:20;36.20;;;23.33;;
14030;SDS011;7090;49.436;8.490;2022-12-18T11:17:49;22.87;;;17.07;;
14030;SDS011;7090;49.436;8.490;2022-12-18T11:20:32;24.13;;;17.83;;
14030;SDS011;7090;49.436;8.490;2022-12-18T11:26:06;15.82;;;14.27;;
14030;SDS011;7090;49.436;8.490;2022-12-18T11:28:39;29.50;;;19.63;;
14030;SDS011;7090;49.436;8.490;2022-12-18T11:31:26;37.78;;;22.42;;
14030;SDS011;7090;49.436;8.490;2022-12-18T11:33:55;30.80;;;20.00;;
14030;SDS011;7090;49.436;8.490;2022-12-18T11:36:42;31.03;;;20.17;;
14030;SDS011;7090;49.436;8.490;2022-12-18T11:47:59;28.60;;;16.83;;
14030;SDS011;7090;49.436;8.490;2022-12-18T11:50:40;24.23;;;17.50;;
14030;SDS011;7090;49.436;8.490;2022-12-18T11:53:13;36.80;;;21.70;;
14030;SDS011;7090;49.436;8.490;2022-12-18T11:55:48;29.23;;;19.10;;
14030;SDS011;7090;49.436;8.490;2022-12-18T11:58:43;27.57;;;17.93;;
14030;SDS011;7090;49.436;8.490;2022-12-18T12:09:51;34.33;;;20.33;;
14030;SDS011;7090;49.436;8.490;2022-12-18T12:12:31;40.47;;;24.67;;
14030;SDS011;7090;49.436;8.490;2022-12-18T12:15:56;43.67;;;23.40;;
14030;SDS011;7090;49.436;8.490;2022-12-18T12:18:36;51.33;;;31.27;;
14030;SDS011;7090;49.436;8.490;2022-12-18T12:21:28;23.93;;;16.17;;
14030;SDS011;7090;49.436;8.490;2022-12-18T12:24:11;35.47;;;18.63;;
14030;SDS011;7090;49.436;8.490;2022-12-18T12:37:25;29.88;;;20.73;;
14030;SDS011;7090;49.436;8.490;2022-12-18T12:40:17;20.00;;;15.30;;
14030;SDS011;7090;49.436;8.490;2022-12-18T12:42:47;40.73;;;22.83;;
14030;SDS011;7090;49.436;8.490;2022-12-18T12:45:48;24.17;;;16.27;;
14030;SDS011;7090;49.436;8.490;2022-12-18T12:48:24;34.60;;;20.73;;
14030;SDS011;7090;49.436;8.490;2022-12-18T12:50:58;41.57;;;22.27;;
14030;SDS011;7090;49.436;8.490;2022-12-18T12:53:29;32.77;;;19.50;;
14030;SDS011;7090;49.436;8.490;2022-12-18T12:55:58;34.50;;;21.50;;
14030;SDS011;7090;49.436;8.490;2022-12-18T12:58:29;21.75;;;17.05;;
14030;SDS011;7090;49.436;8.490;2022-12-18T13:12:55;15.87;;;13.17;;
14030;SDS011;7090;49.436;8.490;2022-12-18T13:18:21;34.60;;;18.97;;
14030;SDS011;7090;49.436;8.490;2022-12-18T13:21:32;15.40;;;11.67;;
14030;SDS011;7090;49.436;8.490;2022-12-18T13:23:48;29.13;;;18.17;;
14030;SDS011;7090;49.436;8.490;2022-12-18T13:31:15;17.60;;;10.50;;
14030;SDS011;7090;49.436;8.490;2022-12-18T13:36:49;38.20;;;18.80;;
14030;SDS011;7090;49.436;8.490;2022-12-18T13:41:46;23.25;;;15.82;;
14030;SDS011;7090;49.436;8.490;2022-12-18T13:46:51;15.97;;;12.90;;
14030;SDS011;7090;49.436;8.490;2022-12-18T13:51:47;21.40;;;15.43;;
14030;SDS011;7090;49.436;8.490;2022-12-18T13:57:03;31.23;;;21.43;;
14030;SDS011;7090;49.436;8.490;2022-12-18T13:59:35;30.50;;;19.47;;
14030;SDS011;7090;49.436;8.490;2022-12-18T14:02:09;32.97;;;16.97;;
14030;SDS011;7090;49.436;8.490;2022-12-18T14:04:40;32.07;;;18.50;;
14030;SDS011;7090;49.436;8.490;2022-12-18T14:07:07;34.23;;;18.83;;
14030;SDS011;7090;49.436;8.490;2022-12-18T14:09:39;26.33;;;18.33;;
14030;SDS011;7090;49.436;8.490;2022-12-18T14:12:14;32.30;;;19.27;;
14030;SDS011;7090;49.436;8.490;2022-12-18T14:15:01;45.80;;;22.97;;
14030;SDS011;7090;49.436;8.490;2022-12-18T14:17:28;32.40;;;20.07;;
14030;SDS011;7090;49.436;8.490;2022-12-18T14:19:53;41.73;;;21.03;;
14030;SDS011;7090;49.436;8.490;2022-12-18T14:22:28;18.47;;;16.20;;
14030;SDS011;7090;49.436;8.490;2022-12-18T14:27:52;28.03;;;17.87;;
14030;SDS011;7090;49.436;8.490;2022-12-18T14:30:35;27.13;;;17.70;;
14030;SDS011;7090;49.436;8.490;2022-12-18T14:33:11;28.27;;;17.27;;
14030;SDS011;7090;49.436;8.490;2022-12-18T14:35:40;38.80;;;21.80;;
14030;SDS011;7090;49.436;8.490;2022-12-18T14:38:37;20.00;;;15.73;;
14030;SDS011;7090;49.436;8.490;2022-12-18T14:43:34;38.60;;;21.57;;
14030;SDS011;7090;49.436;8.490;2022-12-18T14:46:02;11.17;;;10.23;;
14030;SDS011;7090;49.436;8.490;2022-12-18T14:48:48;13.37;;;11.70;;
14030;SDS011;7090;49.436;8.490;2022-12-18T14:51:15;24.40;;;16.20;;
14030;SDS011;7090;49.436;8.490;2022-12-18T14:53:49;24.53;;;15.57;;
14030;SDS011;7090;49.436;8.490;2022-12-18T14:56:34;11.83;;;10.70;;
14030;SDS011;7090;49.436;8.490;2022-12-18T14:59:20;24.60;;;16.90;;
14030;SDS011;7090;49.436;8.490;2022-12-18T15:04:25;27.67;;;15.47;;
14030;SDS011;7090;49.436;8.490;2022-12-18T15:12:33;29.47;;;20.47;;
14030;SDS011;7090;49.436;8.490;2022-12-18T15:20:42;11.13;;;10.10;;
14030;SDS011;7090;49.436;8.490;2022-12-18T15:25:56;7.77;;;7.47;;
14030;SDS011;7090;49.436;8.490;2022-12-18T15:28:26;7.93;;;7.63;;
14030;SDS011;7090;49.436;8.490;2022-12-18T15:33:31;11.07;;;10.20;;
14030;SDS011;7090;49.436;8.490;2022-12-18T15:35:59;5.97;;;5.77;;
14030;SDS011;7090;49.436;8.490;2022-12-18T15:38:30;7.07;;;6.87;;
14030;SDS011;7090;49.436;8.490;2022-12-18T15:40:59;6.80;;;6.60;;
14030;SDS011;7090;49.436;8.490;2022-12-18T15:43:25;7.33;;;7.13;;
14030;SDS011;7090;49.436;8.490;2022-12-18T15:46:01;6.57;;;6.37;;
14030;SDS011;7090;49.436;8.490;2022-12-18T15:48:35;7.73;;;7.43;;
14030;SDS011;7090;49.436;8.490;2022-12-18T15:51:05;7.83;;;7.53;;
14030;SDS011;7090;49.436;8.490;2022-12-18T15:53:42;6.37;;;6.17;;
14030;SDS011;7090;49.436;8.490;2022-12-18T15:56:11;6.70;;;6.50;;
14030;SDS011;7090;49.436;8.490;2022-12-18T15:58:57;6.37;;;6.17;;
14030;SDS011;7090;49.436;8.490;2022-12-18T16:01:23;6.80;;;6.60;;
14030;SDS011;7090;49.436;8.490;2022-12-18T16:03:51;6.50;;;6.30;;
14030;SDS011;7090;49.436;8.490;2022-12-18T16:06:16;12.90;;;12.40;;
14030;SDS011;7090;49.436;8.490;2022-12-18T16:08:42;6.17;;;5.97;;
14030;SDS011;7090;49.436;8.490;2022-12-18T16:11:27;6.77;;;6.57;;
14030;SDS011;7090;49.436;8.490;2022-12-18T16:14:04;7.47;;;7.17;;
14030;SDS011;7090;49.436;8.490;2022-12-18T16:16:43;8.47;;;8.10;;
14030;SDS011;7090;49.436;8.490;2022-12-18T16:19:16;6.60;;;6.40;;
14030;SDS011;7090;49.436;8.490;2022-12-18T16:21:43;9.10;;;8.70;;
14030;SDS011;7090;49.436;8.490;2022-12-18T16:24:22;6.63;;;6.43;;
14030;SDS011;7090;49.436;8.490;2022-12-18T16:26:49;6.47;;;6.27;;
14030;SDS011;7090;49.436;8.490;2022-12-18T16:29:19;7.00;;;6.80;;
14030;SDS011;7090;49.436;8.490;2022-12-18T16:31:52;8.83;;;8.53;;
14030;SDS011;7090;49.436;8.490;2022-12-18T16:36:55;8.47;;;8.17;;
14030;SDS011;7090;49.436;8.490;2022-12-18T16:39:21;7.20;;;7.00;;
14030;SDS011;7090;49.436;8.490;2022-12-18T16:41:47;7.30;;;7.10;;
14030;SDS011;7090;49.436;8.490;2022-12-18T16:44:12;7.50;;;7.20;;
14030;SDS011;7090;49.436;8.490;2022-12-18T16:46:39;7.30;;;7.10;;
14030;SDS011;7090;49.436;8.490;2022-12-18T16:49:07;6.90;;;6.70;;
14030;SDS011;7090;49.436;8.490;2022-12-18T16:51:34;7.23;;;6.93;;
14030;SDS011;7090;49.436;8.490;2022-12-18T16:53:59;8.27;;;7.97;;
14030;SDS011;7090;49.436;8.490;2022-12-18T16:56:25;9.23;;;8.73;;
14030;SDS011;7090;49.436;8.490;2022-12-18T16:58:51;10.57;;;10.17;;
14030;SDS011;7090;49.436;8.490;2022-12-18T17:01:18;7.67;;;7.37;;
14030;SDS011;7090;49.436;8.490;2022-12-18T17:03:50;6.83;;;6.63;;
14030;SDS011;7090;49.436;8.490;2022-12-18T17:06:17;6.88;;;6.68;;
14030;SDS011;7090;49.436;8.490;2022-12-18T17:08:43;7.03;;;6.83;;
14030;SDS011;7090;49.436;8.490;2022-12-18T17:11:09;8.27;;;7.87;;
14030;SDS011;7090;49.436;8.490;2022-12-18T17:13:34;8.23;;;7.93;;
14030;SDS011;7090;49.436;8.490;2022-12-18T17:16:04;6.10;;;5.90;;
14030;SDS011;7090;49.436;8.490;2022-12-18T17:18:31;6.67;;;6.47;;
14030;SDS011;7090;49.436;8.490;2022-12-18T17:20:57;6.27;;;6.07;;
14030;SDS011;7090;49.436;8.490;2022-12-18T17:23:28;12.47;;;11.73;;
14030;SDS011;7090;49.436;8.490;2022-12-18T17:25:55;6.53;;;6.33;;
14030;SDS011;7090;49.436;8.490;2022-12-18T17:28:21;7.60;;;7.30;;
14030;SDS011;7090;49.436;8.490;2022-12-18T17:30:51;8.33;;;7.93;;
14030;SDS011;7090;49.436;8.490;2022-12-18T17:33:18;6.77;;;6.57;;
14030;SDS011;7090;49.436;8.490;2022-12-18T17:35:43;7.00;;;6.80;;